Time;durP1;ratioP1;P1;durP2;ratioP2;P2;SDS_P1;SDS_P2;PMS_P1;PMS_P2;Temp;Humidity;BMP_temperature;BMP_pressure;BME280_temperature;BME280_humidity;BME280_pressure;Samples;Min_cycle;Max_cycle;Signal;HPM_P1;HPM_P2
2021/10/17 00:00:59;;;;;;;;;;;7.20;99.90;;;;;;5077116;28;19924;-73
2021/10/17 00:03:31;;;;;;;;;;;7.10;99.90;;;;;;5082992;28;19925;-72
2021/10/17 00:06:03;;;;;;;;;;;7.10;99.90;;;;;;5091038;27;19932;-73
2021/10/17 00:08:30;;;;;;;;;;;7.00;99.90;;;;;;5075032;28;19932;-73
2021/10/17 00:11:02;;;;;;;;;;;7.10;99.90;;;;;;5070071;28;20060;-73
2021/10/17 00:13:28;;;;;;;;;;;7.10;99.90;;;;;;5072648;28;19939;-73
2021/10/17 00:16:02;;;;;;;;;;;7.00;99.90;;;;;;5071166;28;19924;-73
2021/10/17 00:18:29;;;;;;;;;;;7.00;99.90;;;;;;5072563;28;19929;-73
2021/10/17 00:20:57;;;;;;;;;;;7.00;99.90;;;;;;5071392;28;19993;-73
2021/10/17 00:23:24;;;;;;;;;;;7.00;99.90;;;;;;5071248;28;19935;-73
2021/10/17 00:25:55;;;;;;;;;;;6.90;99.90;;;;;;5070884;28;19977;-73
2021/10/17 00:28:30;;;;;;;;;;;6.90;99.90;;;;;;5072547;28;20344;-73
2021/10/17 00:30:57;;;;;;;;;;;6.80;99.90;;;;;;5071191;28;20019;-72
2021/10/17 00:33:29;;;;;;;;;;;6.80;99.90;;;;;;5070853;28;19928;-72
2021/10/17 00:36:01;;;;;;;;;;;6.80;99.90;;;;;;5088513;28;19932;-73
2021/10/17 00:38:27;;;;;;;;;;;6.80;99.90;;;;;;5104998;28;19931;-73
2021/10/17 00:40:54;;;;;;;;;;;6.80;99.90;;;;;;5070919;28;19936;-73
2021/10/17 00:43:26;;;;;;;;;;;6.80;99.90;;;;;;5088687;28;19931;-73
2021/10/17 00:45:58;;;;;;;;;;;6.80;99.90;;;;;;5088504;28;19924;-73
2021/10/17 00:48:29;;;;;;;;;;;6.90;99.90;;;;;;5071247;28;19931;-73
2021/10/17 00:50:56;;;;;;;;;;;6.90;99.90;;;;;;5070830;28;19925;-73
2021/10/17 00:53:28;;;;;;;;;;;6.80;99.90;;;;;;5070863;28;19925;-73
2021/10/17 00:56:00;;;;;;;;;;;6.80;99.90;;;;;;5088248;28;20235;-73
2021/10/17 00:58:32;;;;;;;;;;;6.80;99.90;;;;;;5088570;28;20405;-72
2021/10/17 01:01:04;;;;;;;;;;;6.70;99.90;;;;;;5071623;28;19925;-73
2021/10/17 01:03:35;;;;;;;;;;;6.70;99.90;;;;;;5104167;28;19925;-73
2021/10/17 01:06:12;;;;;;;;;;;6.60;99.90;;;;;;5087712;28;20287;-72
2021/10/17 01:08:42;;;;;;;;;;;6.60;99.90;;;;;;5070623;28;20299;-73
2021/10/17 01:11:16;;;;;;;;;;;6.60;99.90;;;;;;5071304;28;19925;-72
2021/10/17 01:13:49;;;;;;;;;;;6.50;99.90;;;;;;5070178;28;19924;-73
2021/10/17 01:16:17;;;;;;;;;;;6.50;99.90;;;;;;5069824;28;19932;-73
2021/10/17 01:18:47;;;;;;;;;;;6.40;99.90;;;;;;5070401;28;19924;-73
2021/10/17 01:21:21;;;;;;;;;;;6.40;99.90;;;;;;5070653;28;19925;-73
2021/10/17 01:23:48;;;;;;;;;;;6.40;99.90;;;;;;5104280;28;20016;-73
2021/10/17 01:26:20;;;;;;;;;;;6.30;99.90;;;;;;5070569;28;19924;-73
2021/10/17 01:28:52;;;;;;;;;;;6.20;99.90;;;;;;5087766;28;19998;-73
2021/10/17 01:31:36;;;;;;;;;;;6.10;99.90;;;;;;5069799;28;19932;-73
2021/10/17 01:34:08;;;;;;;;;;;6.10;99.90;;;;;;5069530;28;19936;-73
2021/10/17 01:36:36;;;;;;;;;;;6.10;99.90;;;;;;5069897;28;19935;-73
2021/10/17 01:39:09;;;;;;;;;;;6.10;99.90;;;;;;5087355;28;19931;-72
2021/10/17 01:41:36;;;;;;;;;;;6.10;99.90;;;;;;5070479;28;19966;-73
2021/10/17 01:44:13;;;;;;;;;;;6.10;99.90;;;;;;5087707;28;19982;-73
2021/10/17 01:46:42;;;;;;;;;;;6.00;99.90;;;;;;5106741;28;20415;-72
2021/10/17 01:49:12;;;;;;;;;;;6.00;99.90;;;;;;5074075;28;19924;-72
2021/10/17 01:51:46;;;;;;;;;;;6.00;99.90;;;;;;5074158;28;19955;-72
2021/10/17 01:54:18;;;;;;;;;;;6.00;99.90;;;;;;5091263;28;19935;-72
2021/10/17 01:56:50;;;;;;;;;;;5.90;99.90;;;;;;5074014;28;20291;-73
2021/10/17 01:59:24;;;;;;;;;;;5.90;99.90;;;;;;5074244;28;19929;-73
2021/10/17 02:01:55;;;;;;;;;;;5.80;99.90;;;;;;5107850;28;19929;-73
2021/10/17 02:04:21;;;;;;;;;;;5.80;99.90;;;;;;5107856;28;20019;-73
2021/10/17 02:06:49;;;;;;;;;;;5.80;99.90;;;;;;5107504;28;19929;-72
2021/10/17 02:09:20;;;;;;;;;;;5.70;99.90;;;;;;5073714;28;20384;-73
2021/10/17 02:11:53;;;;;;;;;;;5.70;99.90;;;;;;5073872;28;20306;-73
2021/10/17 02:14:20;;;;;;;;;;;5.80;99.90;;;;;;5107383;28;19974;-73
2021/10/17 02:16:49;;;;;;;;;;;5.80;99.90;;;;;;5073746;28;19931;-73
2021/10/17 02:19:16;;;;;;;;;;;5.80;99.90;;;;;;5107515;28;20020;-72
2021/10/17 02:21:47;;;;;;;;;;;5.80;99.90;;;;;;5091295;28;19924;-72
2021/10/17 02:24:19;;;;;;;;;;;5.80;99.90;;;;;;5073457;28;19930;-73
2021/10/17 02:26:53;;;;;;;;;;;5.90;99.90;;;;;;5091499;28;20302;-73
2021/10/17 02:29:34;;;;;;;;;;;5.90;99.90;;;;;;5092535;28;20325;-73
2021/10/17 02:32:20;;;;;;;;;;;5.90;99.90;;;;;;5075136;28;19931;-73
2021/10/17 02:35:00;;;;;;;;;;;5.90;99.90;;;;;;5091854;28;19924;-72
2021/10/17 02:37:30;;;;;;;;;;;5.80;99.90;;;;;;5107248;28;19931;-72
2021/10/17 02:39:57;;;;;;;;;;;5.80;99.90;;;;;;5073230;28;19924;-73
2021/10/17 02:42:24;;;;;;;;;;;5.80;99.90;;;;;;5107050;28;19986;-73
2021/10/17 02:44:51;;;;;;;;;;;5.80;99.90;;;;;;5072786;28;19924;-72
2021/10/17 02:47:24;;;;;;;;;;;5.80;99.90;;;;;;5073172;28;20302;-72
2021/10/17 02:49:54;;;;;;;;;;;5.80;99.90;;;;;;5107043;28;19970;-72
2021/10/17 02:52:26;;;;;;;;;;;5.80;99.90;;;;;;5074368;28;19928;-73
2021/10/17 02:54:58;;;;;;;;;;;5.80;99.90;;;;;;5090517;28;20010;-73
2021/10/17 02:57:30;;;;;;;;;;;5.80;99.90;;;;;;5072862;28;19931;-73
2021/10/17 03:00:03;;;;;;;;;;;5.80;99.90;;;;;;5090990;28;19947;-73
2021/10/17 03:02:35;;;;;;;;;;;5.80;99.90;;;;;;5090495;28;19928;-73
2021/10/17 03:05:07;;;;;;;;;;;5.80;99.90;;;;;;5073665;28;20402;-72
2021/10/17 03:07:39;;;;;;;;;;;5.70;99.90;;;;;;5074097;28;19925;-72
2021/10/17 03:10:11;;;;;;;;;;;5.70;99.90;;;;;;5072901;28;19924;-73
2021/10/17 03:12:38;;;;;;;;;;;5.70;99.90;;;;;;5106569;28;19955;-72
2021/10/17 03:15:16;;;;;;;;;;;5.70;99.90;;;;;;5090608;28;19974;-73
2021/10/17 03:17:43;;;;;;;;;;;5.70;99.90;;;;;;5072412;28;20314;-73
2021/10/17 03:20:10;;;;;;;;;;;5.70;99.90;;;;;;5072557;28;20375;-72
2021/10/17 03:22:45;;;;;;;;;;;5.60;99.90;;;;;;5072392;28;19982;-73
2021/10/17 03:25:17;;;;;;;;;;;5.60;99.90;;;;;;5105800;28;19932;-73
2021/10/17 03:27:47;;;;;;;;;;;5.60;99.90;;;;;;5073648;28;19932;-73
2021/10/17 03:30:25;;;;;;;;;;;5.50;99.90;;;;;;5090942;28;19933;-73
2021/10/17 03:32:52;;;;;;;;;;;5.50;99.90;;;;;;5073483;28;19932;-72
2021/10/17 03:35:19;;;;;;;;;;;5.40;99.90;;;;;;5071706;28;19924;-73
2021/10/17 03:37:46;;;;;;;;;;;5.30;99.90;;;;;;5073315;28;19935;-72
2021/10/17 03:40:13;;;;;;;;;;;5.20;99.90;;;;;;5072303;28;19928;-73
2021/10/17 03:42:45;;;;;;;;;;;5.10;99.90;;;;;;5071982;28;20019;-73
2021/10/17 03:45:18;;;;;;;;;;;4.90;99.90;;;;;;5089423;28;19928;-73
2021/10/17 03:47:50;;;;;;;;;;;4.80;99.90;;;;;;5089574;28;20306;-73
2021/10/17 03:50:22;;;;;;;;;;;4.80;99.90;;;;;;5071994;28;20357;-72
2021/10/17 03:52:49;;;;;;;;;;;4.70;99.90;;;;;;5105500;28;19975;-73
2021/10/17 03:55:21;;;;;;;;;;;4.80;99.90;;;;;;5088825;28;20007;-72
2021/10/17 03:57:53;;;;;;;;;;;4.80;99.90;;;;;;5073172;28;19931;-73
2021/10/17 04:00:26;;;;;;;;;;;4.80;99.90;;;;;;5071833;28;19978;-72
2021/10/17 04:03:03;;;;;;;;;;;4.90;99.90;;;;;;5071604;28;19974;-72
2021/10/17 04:05:35;;;;;;;;;;;4.90;99.90;;;;;;5089111;28;19932;-73
2021/10/17 04:08:08;;;;;;;;;;;4.90;99.90;;;;;;5072592;28;19968;-73
2021/10/17 04:10:40;;;;;;;;;;;4.90;99.90;;;;;;5071806;28;19971;-73
2021/10/17 04:13:12;;;;;;;;;;;4.90;99.90;;;;;;5071452;28;19931;-73
2021/10/17 04:15:44;;;;;;;;;;;4.80;99.90;;;;;;5072491;28;20362;-72
2021/10/17 04:18:12;;;;;;;;;;;4.80;99.90;;;;;;5105351;28;19924;-73
2021/10/17 04:20:39;;;;;;;;;;;4.80;99.90;;;;;;5071366;28;19978;-72
2021/10/17 04:23:07;;;;;;;;;;;4.80;99.90;;;;;;5071347;28;20027;-73
2021/10/17 04:25:34;;;;;;;;;;;4.80;99.90;;;;;;5070907;28;20358;-73
2021/10/17 04:28:12;;;;;;;;;;;4.80;99.90;;;;;;5071218;28;20284;-73
2021/10/17 04:30:39;;;;;;;;;;;4.80;99.90;;;;;;5071306;28;20019;-72
2021/10/17 04:33:10;;;;;;;;;;;4.80;99.90;;;;;;5088668;28;20410;-73
2021/10/17 04:35:38;;;;;;;;;;;4.80;99.90;;;;;;5070614;28;19924;-72
2021/10/17 04:38:10;;;;;;;;;;;4.80;99.90;;;;;;5072448;28;19924;-72
2021/10/17 04:40:42;;;;;;;;;;;4.80;99.90;;;;;;5071370;28;19929;-73
2021/10/17 04:43:14;;;;;;;;;;;4.80;99.90;;;;;;5072225;28;19925;-73
2021/10/17 04:45:46;;;;;;;;;;;4.80;99.90;;;;;;5088352;28;19968;-73
2021/10/17 04:48:13;;;;;;;;;;;4.70;99.90;;;;;;5071275;28;19925;-73
2021/10/17 04:50:45;;;;;;;;;;;4.70;99.90;;;;;;5070856;28;19936;-73
2021/10/17 04:53:12;;;;;;;;;;;4.60;99.90;;;;;;5070938;28;19925;-73
2021/10/17 04:55:40;;;;;;;;;;;4.60;99.90;;;;;;5063296;28;19963;-72
2021/10/17 04:58:13;;;;;;;;;;;4.50;99.90;;;;;;5070441;28;20390;-73
2021/10/17 05:00:45;;;;;;;;;;;4.50;99.90;;;;;;5052132;28;20128;-73
2021/10/17 05:03:12;;;;;;;;;;;4.50;99.90;;;;;;5103408;28;19930;-73
2021/10/17 05:05:44;;;;;;;;;;;4.40;99.90;;;;;;5088051;28;20463;-73
2021/10/17 05:08:12;;;;;;;;;;;4.40;99.90;;;;;;5086114;28;19925;-73
2021/10/17 05:10:40;;;;;;;;;;;4.30;99.90;;;;;;5070557;28;20418;-73
2021/10/17 05:13:11;;;;;;;;;;;4.20;99.90;;;;;;5070742;28;20383;-72
2021/10/17 05:15:43;;;;;;;;;;;4.10;99.90;;;;;;5071309;28;19924;-73
2021/10/17 05:18:15;;;;;;;;;;;4.10;99.90;;;;;;5070560;28;19931;-73
2021/10/17 05:20:53;;;;;;;;;;;4.00;99.90;;;;;;5057004;28;19924;-73
2021/10/17 05:23:24;;;;;;;;;;;4.00;99.90;;;;;;5075917;28;19932;-73
2021/10/17 05:25:51;;;;;;;;;;;4.10;99.90;;;;;;5057755;28;19954;-73
2021/10/17 05:28:18;;;;;;;;;;;4.10;99.90;;;;;;5108522;28;19928;-73
2021/10/17 05:30:45;;;;;;;;;;;4.20;99.90;;;;;;5058025;28;19931;-72
2021/10/17 05:33:14;;;;;;;;;;;4.20;99.90;;;;;;5074529;28;19924;-72
2021/10/17 05:35:46;;;;;;;;;;;4.30;99.90;;;;;;5058123;28;20011;-72
2021/10/17 05:38:18;;;;;;;;;;;4.30;99.90;;;;;;5074373;28;19931;-73
2021/10/17 05:40:49;;;;;;;;;;;4.30;99.90;;;;;;5074488;28;19930;-72
2021/10/17 05:43:16;;;;;;;;;;;4.20;99.90;;;;;;5108199;28;19928;-73
2021/10/17 05:45:50;;;;;;;;;;;4.10;99.90;;;;;;5073869;28;19974;-73
2021/10/17 05:48:22;;;;;;;;;;;4.10;99.90;;;;;;5075402;28;20019;-73
2021/10/17 05:50:54;;;;;;;;;;;4.00;99.90;;;;;;5108216;28;20459;-72
2021/10/17 05:53:21;;;;;;;;;;;4.00;99.90;;;;;;5074243;28;19928;-73
2021/10/17 05:55:53;;;;;;;;;;;4.10;99.90;;;;;;5091564;28;20005;-72
2021/10/17 05:58:20;;;;;;;;;;;4.10;99.90;;;;;;5074031;28;20427;-72
2021/10/17 06:00:52;;;;;;;;;;;4.20;99.90;;;;;;5074243;28;20283;-73
2021/10/17 06:03:25;;;;;;;;;;;4.20;99.90;;;;;;5105316;28;19925;-72
2021/10/17 06:06:20;;;;;;;;;;;4.20;99.90;;;;;;5066558;28;19978;-73
2021/10/17 06:08:59;;;;;;;;;;;4.20;99.90;;;;;;5072584;28;19928;-72
2021/10/17 06:11:32;;;;;;;;;;;4.10;99.90;;;;;;5090488;28;19924;-73
2021/10/17 06:14:05;;;;;;;;;;;4.10;99.90;;;;;;5089057;28;19932;-73
2021/10/17 06:16:37;;;;;;;;;;;4.10;99.90;;;;;;5081400;28;19924;-73
2021/10/17 06:19:04;;;;;;;;;;;4.10;99.90;;;;;;5072978;28;19977;-73
2021/10/17 06:21:39;;;;;;;;;;;4.10;99.90;;;;;;5073659;28;19924;-72
2021/10/17 06:24:12;;;;;;;;;;;4.10;99.90;;;;;;5084318;28;19924;-74
2021/10/17 06:26:39;;;;;;;;;;;4.10;99.90;;;;;;5093237;28;19931;-72
2021/10/17 06:29:06;;;;;;;;;;;4.10;99.90;;;;;;5093201;28;20386;-72
2021/10/17 06:31:38;;;;;;;;;;;4.10;99.90;;;;;;5081355;28;19928;-73
2021/10/17 06:34:06;;;;;;;;;;;4.10;99.90;;;;;;5070871;28;20011;-72
2021/10/17 06:36:38;;;;;;;;;;;4.20;99.90;;;;;;5068936;28;20275;-73
2021/10/17 06:39:09;;;;;;;;;;;4.20;99.90;;;;;;5069961;28;19924;-72
2021/10/17 06:41:41;;;;;;;;;;;4.20;99.90;;;;;;5072937;28;19924;-73
2021/10/17 06:44:15;;;;;;;;;;;4.30;99.90;;;;;;5071109;28;19928;-73
2021/10/17 06:46:44;;;;;;;;;;;4.30;99.90;;;;;;5071463;28;19982;-72
2021/10/17 06:49:16;;;;;;;;;;;4.30;99.90;;;;;;5055864;28;19928;-73
2021/10/17 06:51:49;;;;;;;;;;;4.30;99.90;;;;;;5068937;28;20745;-73
2021/10/17 06:54:21;;;;;;;;;;;4.30;99.90;;;;;;5055122;28;19925;-72
2021/10/17 06:56:53;;;;;;;;;;;4.40;99.90;;;;;;5071332;28;19928;-73
2021/10/17 06:59:20;;;;;;;;;;;4.50;99.90;;;;;;5073338;28;19939;-72
2021/10/17 07:01:49;;;;;;;;;;;4.50;99.90;;;;;;5070893;28;19929;-72
2021/10/17 07:04:16;;;;;;;;;;;4.60;99.90;;;;;;5069944;28;19928;-73
2021/10/17 07:06:49;;;;;;;;;;;4.70;99.90;;;;;;5070065;28;19925;-72
2021/10/17 07:09:17;;;;;;;;;;;4.70;99.90;;;;;;5105056;28;19992;-72
2021/10/17 07:11:55;;;;;;;;;;;4.70;99.90;;;;;;5071681;28;19924;-72
2021/10/17 07:14:26;;;;;;;;;;;4.70;99.90;;;;;;5090921;28;19924;-72
2021/10/17 07:17:03;;;;;;;;;;;4.70;99.90;;;;;;5091642;28;20017;-73
2021/10/17 07:19:35;;;;;;;;;;;4.80;99.90;;;;;;5109364;27;19930;-72
2021/10/17 07:22:03;;;;;;;;;;;4.80;99.90;;;;;;5091637;28;19933;-72
2021/10/17 07:24:41;;;;;;;;;;;4.80;99.90;;;;;;5075652;28;20388;-73
2021/10/17 07:27:08;;;;;;;;;;;4.80;99.90;;;;;;5091440;28;20670;-72
2021/10/17 07:29:40;;;;;;;;;;;4.80;99.90;;;;;;5109416;27;19924;-72
2021/10/17 07:32:07;;;;;;;;;;;4.80;99.90;;;;;;5090780;28;19928;-72
2021/10/17 07:34:34;;;;;;;;;;;4.80;99.90;;;;;;5124973;27;20012;-72
2021/10/17 07:37:02;;;;;;;;;;;4.90;99.90;;;;;;5074404;28;20584;-73
2021/10/17 07:39:35;;;;;;;;;;;4.90;99.90;;;;;;5108186;27;20350;-73
2021/10/17 07:42:07;;;;;;;;;;;4.90;99.90;;;;;;5044610;28;19928;-73
2021/10/17 07:44:36;;;;;;;;;;;4.90;99.90;;;;;;5066228;28;19935;-73
2021/10/17 07:47:14;;;;;;;;;;;4.90;99.90;;;;;;5070950;28;19970;-73
2021/10/17 07:50:05;;;;;;;;;;;5.00;99.90;;;;;;5073246;28;19924;-73
2021/10/17 07:52:36;;;;;;;;;;;5.00;99.90;;;;;;5070451;28;19924;-73
2021/10/17 07:55:20;;;;;;;;;;;5.10;99.90;;;;;;5071148;28;20302;-73
2021/10/17 07:57:54;;;;;;;;;;;5.20;99.90;;;;;;5070830;28;20022;-73
2021/10/17 08:00:32;;;;;;;;;;;5.20;99.90;;;;;;5071353;28;20435;-73
2021/10/17 08:03:18;;;;;;;;;;;5.20;99.90;;;;;;5072898;28;19958;-73
2021/10/17 08:05:55;;;;;;;;;;;5.20;99.90;;;;;;5072304;28;20349;-73
2021/10/17 08:08:22;;;;;;;;;;;5.20;99.90;;;;;;5071347;28;20307;-73
2021/10/17 08:10:54;;;;;;;;;;;5.10;99.90;;;;;;5070973;28;19925;-73
2021/10/17 08:13:25;;;;;;;;;;;5.20;99.90;;;;;;5070828;28;19972;-73
2021/10/17 08:15:56;;;;;;;;;;;5.20;99.90;;;;;;5070154;28;19925;-73
2021/10/17 08:18:35;;;;;;;;;;;5.30;99.90;;;;;;5089668;28;19925;-72
2021/10/17 08:21:07;;;;;;;;;;;5.30;99.90;;;;;;5100577;28;19943;-73
2021/10/17 08:23:47;;;;;;;;;;;5.30;99.90;;;;;;5085045;28;20021;-72
2021/10/17 08:26:19;;;;;;;;;;;5.40;99.90;;;;;;5053096;28;20011;-73
2021/10/17 08:28:53;;;;;;;;;;;5.40;99.90;;;;;;5070337;28;19978;-73
2021/10/17 08:31:25;;;;;;;;;;;5.40;99.90;;;;;;5069933;28;20458;-73
2021/10/17 08:33:57;;;;;;;;;;;5.40;99.90;;;;;;5054706;28;19928;-73
2021/10/17 08:36:31;;;;;;;;;;;5.50;99.90;;;;;;5069030;28;19932;-73
2021/10/17 08:39:04;;;;;;;;;;;5.50;99.90;;;;;;5082233;28;19928;-73
2021/10/17 08:41:42;;;;;;;;;;;5.60;99.90;;;;;;5069679;28;20023;-73
2021/10/17 08:44:13;;;;;;;;;;;5.60;99.90;;;;;;5069090;28;19928;-73
2021/10/17 08:46:53;;;;;;;;;;;5.70;99.90;;;;;;5069285;28;20325;-73
2021/10/17 08:49:26;;;;;;;;;;;5.70;99.90;;;;;;5069708;28;19925;-73
2021/10/17 08:51:54;;;;;;;;;;;5.80;99.90;;;;;;5069394;28;20014;-72
2021/10/17 08:54:26;;;;;;;;;;;5.90;99.90;;;;;;5053052;28;19925;-72
2021/10/17 08:57:04;;;;;;;;;;;5.90;99.90;;;;;;5103456;28;20019;-74
2021/10/17 08:59:31;;;;;;;;;;;6.10;99.90;;;;;;5102193;28;19981;-72
2021/10/17 09:01:59;;;;;;;;;;;6.10;99.90;;;;;;5043951;28;19937;-72
2021/10/17 09:04:36;;;;;;;;;;;6.20;99.90;;;;;;5067579;28;19977;-72
2021/10/17 09:07:21;;;;;;;;;;;6.20;99.90;;;;;;5069592;28;20375;-72
2021/10/17 09:10:19;;;;;;;;;;;6.20;99.90;;;;;;5069388;28;19968;-72
2021/10/17 09:12:52;;;;;;;;;;;6.20;99.90;;;;;;5052056;28;19936;-72
2021/10/17 09:15:26;;;;;;;;;;;6.20;99.90;;;;;;5068370;28;19928;-72
2021/10/17 09:18:05;;;;;;;;;;;6.20;99.90;;;;;;5078716;28;19933;-71
2021/10/17 09:20:46;;;;;;;;;;;6.20;99.90;;;;;;5069354;28;19950;-72
2021/10/17 09:23:13;;;;;;;;;;;6.20;99.90;;;;;;5069073;28;19970;-72
2021/10/17 09:25:45;;;;;;;;;;;6.30;99.90;;;;;;5065696;28;19928;-72
2021/10/17 09:28:12;;;;;;;;;;;6.40;99.90;;;;;;5065030;28;20414;-72
2021/10/17 09:30:56;;;;;;;;;;;6.50;99.90;;;;;;5069274;28;20302;-72
2021/10/17 09:33:27;;;;;;;;;;;6.60;99.90;;;;;;5069121;28;20593;-72
2021/10/17 09:36:13;;;;;;;;;;;6.70;99.90;;;;;;5052839;28;19974;-72
2021/10/17 09:39:31;;;;;;;;;;;6.80;99.90;;;;;;5025465;28;19925;-72
2021/10/17 09:42:20;;;;;;;;;;;6.80;99.90;;;;;;5069531;28;20393;-72
2021/10/17 09:45:20;;;;;;;;;;;6.90;99.90;;;;;;5068643;28;19939;-72
2021/10/17 09:47:52;;;;;;;;;;;6.90;99.90;;;;;;5069267;28;19928;-72
2021/10/17 09:50:20;;;;;;;;;;;6.90;99.90;;;;;;5069174;28;19931;-72
2021/10/17 09:53:00;;;;;;;;;;;6.90;99.90;;;;;;5068349;28;19925;-73
2021/10/17 09:55:33;;;;;;;;;;;7.00;99.90;;;;;;5051568;28;19932;-72
2021/10/17 09:58:05;;;;;;;;;;;7.00;99.90;;;;;;5067823;28;19932;-72
2021/10/17 10:00:38;;;;;;;;;;;7.10;99.90;;;;;;5066577;28;20276;-72
2021/10/17 10:03:06;;;;;;;;;;;7.10;99.90;;;;;;5069264;28;20342;-72
2021/10/17 10:05:34;;;;;;;;;;;7.10;99.90;;;;;;5068522;28;19932;-72
2021/10/17 10:08:03;;;;;;;;;;;7.10;99.90;;;;;;5081555;28;19925;-72
2021/10/17 10:10:31;;;;;;;;;;;7.20;99.90;;;;;;5094509;28;19931;-72
2021/10/17 10:13:01;;;;;;;;;;;7.20;99.90;;;;;;5094435;28;20322;-72
2021/10/17 10:15:28;;;;;;;;;;;7.20;99.90;;;;;;5076580;28;19924;-73
2021/10/17 10:18:01;;;;;;;;;;;7.30;99.90;;;;;;5093585;28;20302;-72
2021/10/17 10:20:28;;;;;;;;;;;7.40;99.90;;;;;;5076820;28;19932;-72
2021/10/17 10:22:55;;;;;;;;;;;7.50;99.90;;;;;;5071243;28;20521;-73
2021/10/17 10:25:22;;;;;;;;;;;7.60;99.90;;;;;;5071512;28;19931;-73
2021/10/17 10:27:49;;;;;;;;;;;7.70;99.90;;;;;;5072059;28;19924;-73
2021/10/17 10:30:24;;;;;;;;;;;7.80;99.90;;;;;;5088759;28;19932;-73
2021/10/17 10:33:10;;;;;;;;;;;7.90;99.90;;;;;;5071589;28;20019;-73
2021/10/17 10:35:57;;;;;;;;;;;8.00;99.90;;;;;;5072130;28;19925;-73
2021/10/17 10:38:47;;;;;;;;;;;8.10;99.90;;;;;;5089618;28;19978;-73
2021/10/17 10:41:20;;;;;;;;;;;8.10;99.90;;;;;;5056934;28;19998;-74
2021/10/17 10:43:52;;;;;;;;;;;8.20;99.90;;;;;;5058079;28;19947;-73
2021/10/17 10:46:28;;;;;;;;;;;8.20;99.90;;;;;;5051929;28;20020;-73
2021/10/17 10:49:00;;;;;;;;;;;8.30;99.90;;;;;;5072411;28;19932;-73
2021/10/17 10:51:35;;;;;;;;;;;8.30;99.90;;;;;;5056042;28;19931;-73
2021/10/17 10:54:02;;;;;;;;;;;8.40;99.90;;;;;;5074821;28;19941;-73
2021/10/17 10:56:37;;;;;;;;;;;8.40;99.90;;;;;;5069263;28;20457;-74
2021/10/17 10:59:04;;;;;;;;;;;8.50;99.90;;;;;;5064924;28;19985;-74
2021/10/17 11:01:50;;;;;;;;;;;8.60;99.90;;;;;;5094158;28;20327;-74
2021/10/17 11:04:46;;;;;;;;;;;8.60;99.90;;;;;;5068260;28;19930;-74
2021/10/17 11:07:22;;;;;;;;;;;8.60;99.90;;;;;;5054682;28;19924;-74
2021/10/17 11:09:56;;;;;;;;;;;8.60;99.90;;;;;;5050747;28;19929;-74
2021/10/17 11:12:40;;;;;;;;;;;8.60;99.90;;;;;;5066894;28;19924;-74
2021/10/17 11:15:08;;;;;;;;;;;8.70;99.90;;;;;;5084520;28;19928;-74
2021/10/17 11:17:35;;;;;;;;;;;8.80;99.90;;;;;;5067701;28;19925;-74
2021/10/17 11:20:07;;;;;;;;;;;8.80;99.90;;;;;;5052993;28;19925;-74
2021/10/17 11:22:39;;;;;;;;;;;8.80;99.90;;;;;;5061239;28;19928;-74
2021/10/17 11:25:12;;;;;;;;;;;8.90;99.90;;;;;;5071287;28;19924;-73
2021/10/17 11:27:45;;;;;;;;;;;9.00;99.90;;;;;;5074730;28;20671;-73
2021/10/17 11:30:42;;;;;;;;;;;9.00;99.90;;;;;;5075783;28;20279;-74
2021/10/17 11:33:17;;;;;;;;;;;9.20;99.90;;;;;;5046487;28;19929;-73
2021/10/17 11:35:49;;;;;;;;;;;9.30;99.90;;;;;;5054715;28;19928;-74
2021/10/17 11:38:16;;;;;;;;;;;9.30;99.90;;;;;;5071430;28;20374;-73
2021/10/17 11:40:48;;;;;;;;;;;9.30;99.90;;;;;;5071643;28;19931;-74
2021/10/17 11:43:20;;;;;;;;;;;9.40;99.90;;;;;;5089525;28;19928;-74
2021/10/17 11:45:47;;;;;;;;;;;9.40;99.90;;;;;;5070650;28;19960;-74
2021/10/17 11:48:19;;;;;;;;;;;9.40;99.90;;;;;;5088510;28;19936;-74
2021/10/17 11:50:49;;;;;;;;;;;9.50;99.90;;;;;;5059264;28;20436;-74
2021/10/17 11:53:21;;;;;;;;;;;9.50;99.90;;;;;;5055094;28;20338;-74
2021/10/17 11:55:53;;;;;;;;;;;9.50;99.90;;;;;;5070462;28;20390;-73
2021/10/17 11:58:26;;;;;;;;;;;9.50;99.90;;;;;;5060339;28;19939;-74
2021/10/17 12:01:08;;;;;;;;;;;9.60;99.90;;;;;;5063860;28;19929;-73
2021/10/17 12:03:36;;;;;;;;;;;9.50;99.90;;;;;;5070411;28;19963;-73
2021/10/17 12:06:03;;;;;;;;;;;9.50;99.90;;;;;;5052265;28;20297;-73
2021/10/17 12:08:32;;;;;;;;;;;9.50;99.90;;;;;;5087424;28;19925;-73
2021/10/17 12:11:09;;;;;;;;;;;9.60;99.90;;;;;;5054561;28;20302;-73
2021/10/17 12:14:01;;;;;;;;;;;9.50;99.90;;;;;;5071629;28;19978;-72
2021/10/17 12:16:31;;;;;;;;;;;9.50;99.90;;;;;;5054524;28;19974;-73
2021/10/17 12:19:03;;;;;;;;;;;9.50;99.90;;;;;;5070956;28;19925;-74
2021/10/17 12:21:42;;;;;;;;;;;9.50;99.90;;;;;;5054833;28;19924;-73
2021/10/17 12:24:09;;;;;;;;;;;9.60;99.90;;;;;;5069888;28;19924;-73
2021/10/17 12:26:51;;;;;;;;;;;9.60;99.90;;;;;;5048380;28;19932;-74
2021/10/17 12:29:19;;;;;;;;;;;9.60;99.90;;;;;;5053356;28;19924;-74
2021/10/17 12:31:53;;;;;;;;;;;9.70;99.90;;;;;;5053206;28;19924;-74
2021/10/17 12:34:40;;;;;;;;;;;9.80;99.90;;;;;;5070800;28;20031;-73
2021/10/17 12:37:15;;;;;;;;;;;9.80;99.90;;;;;;5053913;28;19958;-74
2021/10/17 12:39:42;;;;;;;;;;;9.70;99.90;;;;;;5053119;28;20428;-74
2021/10/17 12:42:14;;;;;;;;;;;9.70;99.90;;;;;;5071067;28;19924;-74
2021/10/17 12:44:46;;;;;;;;;;;9.70;99.90;;;;;;5066930;28;19932;-74
2021/10/17 12:47:20;;;;;;;;;;;9.70;99.90;;;;;;5069601;28;19925;-74
2021/10/17 12:49:51;;;;;;;;;;;9.80;99.90;;;;;;5054164;28;20441;-74
2021/10/17 12:52:27;;;;;;;;;;;9.90;99.90;;;;;;5053731;28;19928;-74
2021/10/17 12:54:55;;;;;;;;;;;10.00;99.90;;;;;;5069280;28;19924;-74
2021/10/17 12:57:22;;;;;;;;;;;10.20;99.90;;;;;;5069648;28;20372;-74
2021/10/17 12:59:56;;;;;;;;;;;10.30;99.90;;;;;;5069018;28;20349;-74
2021/10/17 13:02:37;;;;;;;;;;;10.50;99.90;;;;;;5083848;28;19974;-74
2021/10/17 13:05:08;;;;;;;;;;;10.60;99.90;;;;;;5071203;28;19946;-73
2021/10/17 13:07:35;;;;;;;;;;;10.80;99.90;;;;;;5071219;28;20319;-74
2021/10/17 13:10:08;;;;;;;;;;;10.90;99.90;;;;;;5071290;28;19925;-73
2021/10/17 13:12:38;;;;;;;;;;;11.00;99.90;;;;;;5054365;28;19972;-73
2021/10/17 13:15:13;;;;;;;;;;;11.10;99.90;;;;;;5067287;28;19928;-72
2021/10/17 13:17:53;;;;;;;;;;;11.20;99.90;;;;;;5075490;28;19928;-74
2021/10/17 13:20:26;;;;;;;;;;;11.30;99.90;;;;;;5091012;28;19968;-74
2021/10/17 13:22:59;;;;;;;;;;;11.30;99.90;;;;;;5080805;28;20011;-73
2021/10/17 13:25:27;;;;;;;;;;;11.40;99.90;;;;;;5074495;28;19936;-73
2021/10/17 13:27:54;;;;;;;;;;;11.50;99.90;;;;;;5077815;28;20391;-74
2021/10/17 13:30:27;;;;;;;;;;;11.50;99.90;;;;;;5075169;28;19924;-73
2021/10/17 13:33:00;;;;;;;;;;;11.50;99.90;;;;;;5069573;28;19940;-73
2021/10/17 13:35:33;;;;;;;;;;;11.60;99.90;;;;;;5062184;28;19932;-74
2021/10/17 13:38:00;;;;;;;;;;;11.70;99.90;;;;;;5072969;28;19928;-73
2021/10/17 13:40:33;;;;;;;;;;;11.70;99.90;;;;;;5072242;28;20403;-74
2021/10/17 13:43:05;;;;;;;;;;;11.80;99.90;;;;;;5073417;28;19928;-74
2021/10/17 13:45:37;;;;;;;;;;;11.90;99.90;;;;;;5085511;28;20271;-73
2021/10/17 13:48:04;;;;;;;;;;;12.00;99.90;;;;;;5088875;28;19925;-74
2021/10/17 13:50:36;;;;;;;;;;;12.10;99.90;;;;;;5069492;28;20314;-73
2021/10/17 13:53:07;;;;;;;;;;;12.20;99.90;;;;;;5072527;28;20582;-73
2021/10/17 13:55:39;;;;;;;;;;;12.30;99.90;;;;;;5068770;28;19932;-74
2021/10/17 13:58:13;;;;;;;;;;;12.40;99.90;;;;;;5067625;28;20028;-74
2021/10/17 14:00:45;;;;;;;;;;;12.40;99.90;;;;;;5072803;28;19947;-74
2021/10/17 14:03:12;;;;;;;;;;;12.40;99.90;;;;;;5073253;28;19931;-73
2021/10/17 14:05:39;;;;;;;;;;;12.50;99.90;;;;;;5069971;28;19925;-73
2021/10/17 14:08:10;;;;;;;;;;;12.50;99.90;;;;;;5071247;28;19924;-73
2021/10/17 14:10:37;;;;;;;;;;;12.50;99.90;;;;;;5069006;28;19931;-74
2021/10/17 14:13:09;;;;;;;;;;;12.60;99.90;;;;;;5066488;28;19986;-74
2021/10/17 14:15:41;;;;;;;;;;;12.70;99.90;;;;;;5071924;28;20019;-73
2021/10/17 14:18:13;;;;;;;;;;;12.80;99.90;;;;;;5052807;28;19924;-73
2021/10/17 14:20:45;;;;;;;;;;;12.90;99.90;;;;;;5066678;28;19924;-74
2021/10/17 14:23:17;;;;;;;;;;;13.00;99.90;;;;;;5074062;28;19932;-73
2021/10/17 14:25:49;;;;;;;;;;;13.00;99.90;;;;;;5067759;28;19970;-74
2021/10/17 14:28:20;;;;;;;;;;;13.20;99.90;;;;;;5073072;28;19932;-73
2021/10/17 14:30:53;;;;;;;;;;;13.20;99.90;;;;;;5072357;28;19932;-74
2021/10/17 14:33:20;;;;;;;;;;;13.20;99.90;;;;;;5071775;28;19950;-73
2021/10/17 14:35:47;;;;;;;;;;;13.20;99.90;;;;;;5073753;28;19939;-74
2021/10/17 14:38:19;;;;;;;;;;;13.30;99.90;;;;;;5074634;28;19928;-74
2021/10/17 14:40:48;;;;;;;;;;;13.20;99.90;;;;;;5084425;28;19935;-74
2021/10/17 14:43:16;;;;;;;;;;;13.20;99.90;;;;;;5056378;28;19988;-73
2021/10/17 14:45:43;;;;;;;;;;;13.20;99.90;;;;;;5070824;28;19932;-73
2021/10/17 14:48:11;;;;;;;;;;;13.20;99.90;;;;;;5084254;28;20410;-74
2021/10/17 14:50:43;;;;;;;;;;;13.30;99.90;;;;;;5081276;28;19925;-73
2021/10/17 14:53:10;;;;;;;;;;;13.30;99.90;;;;;;5069941;28;20027;-73
2021/10/17 14:55:38;;;;;;;;;;;13.30;99.90;;;;;;5061542;28;19929;-74
2021/10/17 14:58:09;;;;;;;;;;;13.30;99.90;;;;;;5060306;28;19925;-73